Time;durP1;ratioP1;P1;durP2;ratioP2;P2;SDS_P1;SDS_P2;PMS_P1;PMS_P2;Temp;Humidity;BMP_temperature;BMP_pressure;BME280_temperature;BME280_humidity;BME280_pressure;Samples;Min_cycle;Max_cycle;Signal;HPM_P1;HPM_P2
2022/01/04 00:01:06;;;;;;;;;;;;;;;20.83;49.72;99848.63;7285179;19;151928;-52
2022/01/04 00:03:34;;;;;;;;;;;;;;;20.89;49.76;99851.25;7283124;19;152900;-51
2022/01/04 00:06:02;;;;;;;;;;;;;;;20.92;50.03;99842.97;7283790;19;152296;-50
2022/01/04 00:08:28;;;;;;;;;;;;;;;20.97;49.87;99847.56;7279950;19;152782;-51
2022/01/04 00:11:06;;;;;;;;;;;;;;;21.01;49.86;99842.91;7281167;19;153263;-51
2022/01/04 00:13:34;;;;;;;;;;;;;;;21.04;49.68;99845.03;7290447;19;152085;-51
2022/01/04 00:16:03;;;;;;;;;;;;;;;21.07;49.46;99830.34;7277033;19;154040;-51
2022/01/04 00:18:30;;;;;;;;;;;;;;;21.10;49.71;99830.47;7279999;19;151626;-51
2022/01/04 00:20:56;;;;;;;;;;;;;;;21.13;49.35;99826.19;7284200;19;153892;-51
2022/01/04 00:23:23;;;;;;;;;;;;;;;21.13;49.76;99818.59;7281468;19;153458;-51
2022/01/04 00:25:50;;;;;;;;;;;;;;;21.16;49.35;99822.72;7282470;19;152199;-51
2022/01/04 00:28:17;;;;;;;;;;;;;;;21.17;49.21;99815.91;7281354;19;153369;-51
2022/01/04 00:30:44;;;;;;;;;;;;;;;21.19;49.07;99807.97;7279577;19;154304;-51
2022/01/04 00:33:12;;;;;;;;;;;;;;;21.20;49.89;99802.03;7278290;19;152519;-51
2022/01/04 00:35:40;;;;;;;;;;;;;;;21.22;49.74;99793.25;7283634;19;153847;-51
2022/01/04 00:38:07;;;;;;;;;;;;;;;21.23;49.73;99780.84;7278780;19;152232;-50
2022/01/04 00:40:34;;;;;;;;;;;;;;;21.23;50.05;99786.47;7280455;19;153149;-51
2022/01/04 00:43:00;;;;;;;;;;;;;;;21.23;49.76;99781.66;7280265;19;153810;-51
2022/01/04 00:45:31;;;;;;;;;;;;;;;21.23;49.54;99776.06;7282840;19;152072;-51
2022/01/04 00:50:28;;;;;;;;;;;;;;;21.24;49.76;99774.06;7278351;19;153575;-50
2022/01/04 00:52:55;;;;;;;;;;;;;;;21.24;49.46;99772.09;7283369;19;151718;-51
2022/01/04 00:55:22;;;;;;;;;;;;;;;21.23;49.81;99775.22;7276839;19;153394;-51
2022/01/04 00:57:49;;;;;;;;;;;;;;;21.22;49.94;99765.97;7285805;19;153732;-51
2022/01/04 01:00:16;;;;;;;;;;;;;;;21.22;50.08;99767.97;7282647;19;153017;-50
2022/01/04 01:02:44;;;;;;;;;;;;;;;21.21;50.05;99766.34;7279350;19;153114;-51
2022/01/04 01:05:12;;;;;;;;;;;;;;;21.18;50.39;99762.22;7276772;19;151798;-51
2022/01/04 01:07:39;;;;;;;;;;;;;;;21.19;50.44;99763.84;7276210;19;153399;-51
2022/01/04 01:12:36;;;;;;;;;;;;;;;21.16;50.66;99761.75;7280200;19;152151;-51
2022/01/04 01:15:04;;;;;;;;;;;;;;;21.15;50.20;99754.47;7278095;19;152603;-51
2022/01/04 01:17:31;;;;;;;;;;;;;;;21.15;50.78;99748.03;7277035;19;152789;-52
2022/01/04 01:19:58;;;;;;;;;;;;;;;21.14;50.50;99754.81;7292362;19;151769;-51
2022/01/04 01:22:25;;;;;;;;;;;;;;;21.13;50.49;99753.16;7286187;19;153826;-51
2022/01/04 01:24:52;;;;;;;;;;;;;;;21.12;50.53;99751.50;7286787;19;151654;-51
2022/01/04 01:27:18;;;;;;;;;;;;;;;21.11;50.65;99749.84;7284256;19;152364;-51
2022/01/04 01:29:45;;;;;;;;;;;;;;;21.11;50.83;99745.06;7282939;19;153280;-51
2022/01/04 01:32:12;;;;;;;;;;;;;;;21.09;51.34;99733.31;7286298;19;152785;-51
2022/01/04 01:34:41;;;;;;;;;;;;;;;21.08;51.31;99728.03;7282268;19;153445;-50
2022/01/04 01:37:09;;;;;;;;;;;;;;;21.07;51.53;99726.41;7282817;19;153786;-51
2022/01/04 01:39:36;;;;;;;;;;;;;;;21.05;52.00;99718.31;7292124;19;152087;-51
2022/01/04 01:42:03;;;;;;;;;;;;;;;21.02;52.33;99709.78;7282450;19;152591;-51
2022/01/04 01:44:31;;;;;;;;;;;;;;;21.01;52.26;99702.50;7283874;19;151766;-51
2022/01/04 01:46:58;;;;;;;;;;;;;;;20.99;52.65;99702.84;7285349;19;151759;-51
2022/01/04 01:49:26;;;;;;;;;;;;;;;20.96;52.60;99697.09;7283435;19;153408;-51
2022/01/04 01:51:53;;;;;;;;;;;;;;;20.95;53.13;99692.63;7283113;19;151966;-51
2022/01/04 01:54:20;;;;;;;;;;;;;;;20.91;52.85;99688.88;7285426;19;152636;-51
2022/01/04 01:56:47;;;;;;;;;;;;;;;20.91;52.63;99683.25;7282384;19;153278;-51
2022/01/04 01:59:14;;;;;;;;;;;;;;;20.89;52.67;99678.00;7285365;19;151576;-51
2022/01/04 02:01:41;;;;;;;;;;;;;;;20.87;53.16;99677.50;7292115;19;153778;-51
2022/01/04 02:04:08;;;;;;;;;;;;;;;20.88;52.99;99681.13;7283884;19;152424;-51
2022/01/04 02:06:35;;;;;;;;;;;;;;;20.86;53.07;99678.66;7284498;19;153148;-50
2022/01/04 02:09:03;;;;;;;;;;;;;;;20.84;52.74;99672.59;7284121;19;154015;-51
2022/01/04 02:11:31;;;;;;;;;;;;;;;20.82;52.56;99677.69;7282979;19;152501;-51
2022/01/04 02:13:59;;;;;;;;;;;;;;;20.82;52.73;99674.91;7284662;19;152081;-52
2022/01/04 02:16:26;;;;;;;;;;;;;;;20.81;52.73;99674.06;7278861;19;152628;-51
2022/01/04 02:18:56;;;;;;;;;;;;;;;20.80;52.78;99675.22;7282804;19;151671;-51
2022/01/04 02:21:23;;;;;;;;;;;;;;;20.82;52.21;99681.34;7285112;19;153172;-51
2022/01/04 02:23:50;;;;;;;;;;;;;;;20.83;52.32;99670.94;7289769;19;153322;-51
2022/01/04 02:26:17;;;;;;;;;;;;;;;20.81;52.70;99668.44;7284132;19;153140;-51
2022/01/04 02:28:45;;;;;;;;;;;;;;;20.79;52.32;99673.59;7286146;19;153362;-51
2022/01/04 02:31:12;;;;;;;;;;;;;;;20.78;52.19;99666.34;7287715;19;152093;-51
2022/01/04 02:33:40;;;;;;;;;;;;;;;20.76;52.54;99665.84;7287746;19;152752;-51
2022/01/04 02:36:06;;;;;;;;;;;;;;;20.75;52.27;99660.59;7283726;19;154444;-51
2022/01/04 02:38:34;;;;;;;;;;;;;;;20.73;52.46;99663.72;7286077;19;152243;-51
2022/01/04 02:41:01;;;;;;;;;;;;;;;20.72;52.02;99652.84;7285460;19;152684;-51
2022/01/04 02:43:28;;;;;;;;;;;;;;;20.71;52.12;99656.81;7284621;19;153925;-51
2022/01/04 02:45:55;;;;;;;;;;;;;;;20.65;52.38;99639.34;7293860;19;151997;-51
2022/01/04 02:48:22;;;;;;;;;;;;;;;20.64;52.32;99648.94;7281954;19;154257;-52
2022/01/04 02:50:50;;;;;;;;;;;;;;;20.62;52.42;99637.25;7283076;19;152470;-51
2022/01/04 02:53:17;;;;;;;;;;;;;;;20.62;52.04;99642.03;7283590;19;153313;-50
2022/01/04 02:55:45;;;;;;;;;;;;;;;20.58;52.12;99633.44;7280543;19;152584;-51
2022/01/04 02:58:12;;;;;;;;;;;;;;;20.56;52.18;99635.78;7284258;19;152834;-51
2022/01/04 03:00:39;;;;;;;;;;;;;;;20.49;52.28;99632.69;7284505;19;152619;-51
2022/01/04 03:03:06;;;;;;;;;;;;;;;20.50;52.44;99625.91;7282103;19;153916;-51
2022/01/04 03:05:33;;;;;;;;;;;;;;;20.48;52.26;99617.03;7281392;19;152338;-50
2022/01/04 03:08:00;;;;;;;;;;;;;;;20.45;51.92;99616.88;7285581;19;153672;-51
2022/01/04 03:10:27;;;;;;;;;;;;;;;20.43;52.11;99617.22;7282045;19;152110;-51
2022/01/04 03:12:54;;;;;;;;;;;;;;;20.42;52.00;99616.41;7284092;19;152044;-51
2022/01/04 03:15:21;;;;;;;;;;;;;;;20.41;51.95;99613.94;7280448;19;155082;-51
2022/01/04 03:17:48;;;;;;;;;;;;;;;20.37;52.13;99618.59;7281319;19;152704;-51
2022/01/04 03:20:14;;;;;;;;;;;;;;;20.31;52.20;99622.72;7283273;19;152727;-51
2022/01/04 03:22:41;;;;;;;;;;;;;;;20.29;52.27;99627.84;7280260;19;152221;-51
2022/01/04 03:25:08;;;;;;;;;;;;;;;20.31;51.99;99619.94;7283588;19;151822;-52
2022/01/04 03:27:35;;;;;;;;;;;;;;;20.27;51.98;99618.94;7280510;19;152799;-51
2022/01/04 03:30:02;;;;;;;;;;;;;;;20.26;52.43;99611.72;7289134;19;151981;-51
2022/01/04 03:32:29;;;;;;;;;;;;;;;20.24;52.17;99591.56;7282911;19;152827;-52
2022/01/04 03:34:56;;;;;;;;;;;;;;;20.24;52.16;99589.59;7279105;19;153626;-51
2022/01/04 03:37:23;;;;;;;;;;;;;;;20.19;52.65;99589.78;7282310;19;152493;-52
2022/01/04 03:39:50;;;;;;;;;;;;;;;20.17;52.54;99582.91;7282144;19;152768;-51
2022/01/04 03:42:17;;;;;;;;;;;;;;;20.16;52.39;99581.25;7280097;19;154027;-51
2022/01/04 03:44:44;;;;;;;;;;;;;;;20.15;52.62;99572.00;7280089;19;151689;-50
2022/01/04 03:47:11;;;;;;;;;;;;;;;20.08;52.41;99584.94;7282097;19;153934;-51
2022/01/04 03:49:38;;;;;;;;;;;;;;;20.09;52.77;99583.75;7289149;19;154019;-51
2022/01/04 03:52:05;;;;;;;;;;;;;;;20.09;52.36;99583.75;7282240;19;153604;-51
2022/01/04 03:54:31;;;;;;;;;;;;;;;20.08;52.31;99584.94;7279438;19;153228;-50
2022/01/04 03:56:58;;;;;;;;;;;;;;;20.04;52.64;99579.16;7278425;19;152656;-51
2022/01/04 03:59:29;;;;;;;;;;;;;;;20.04;52.32;99581.13;7281702;19;152804;-51
2022/01/04 04:01:57;;;;;;;;;;;;;;;20.00;52.67;99578.19;7284109;19;153402;-52
2022/01/04 04:04:25;;;;;;;;;;;;;;;19.99;52.76;99574.56;7281941;19;152128;-50
2022/01/04 04:06:52;;;;;;;;;;;;;;;19.96;52.42;99566.84;7280283;19;152918;-51
2022/01/04 04:09:19;;;;;;;;;;;;;;;19.95;52.47;99562.38;7278078;19;153269;-50
2022/01/04 04:11:45;;;;;;;;;;;;;;;19.93;52.39;99561.09;7286415;19;152149;-50
2022/01/04 04:14:12;;;;;;;;;;;;;;;19.91;52.31;99557.78;7275176;19;153871;-51
2022/01/04 04:16:59;;;;;;;;;;;;;;;19.88;52.41;99559.28;7273715;19;152179;-51
2022/01/04 04:19:26;;;;;;;;;;;;;;;19.86;52.42;99547.59;7277890;19;152757;-50
2022/01/04 04:21:53;;;;;;;;;;;;;;;19.85;52.41;99543.13;7277543;19;154183;-51
2022/01/04 04:24:20;;;;;;;;;;;;;;;19.85;52.64;99536.75;7278902;19;151820;-51
2022/01/04 04:26:47;;;;;;;;;;;;;;;19.85;52.78;99534.72;7278094;19;153525;-51
2022/01/04 04:29:14;;;;;;;;;;;;;;;19.86;52.49;99541.16;7277392;19;153782;-52
2022/01/04 04:31:40;;;;;;;;;;;;;;;19.83;52.24;99537.06;7279095;19;151938;-52
2022/01/04 04:34:07;;;;;;;;;;;;;;;19.82;52.54;99535.41;7286810;19;153166;-51
2022/01/04 04:36:34;;;;;;;;;;;;;;;19.80;52.66;99546.16;7275792;19;152209;-51
2022/01/04 04:39:01;;;;;;;;;;;;;;;19.77;52.68;99544.00;7277838;19;152549;-51
2022/01/04 04:41:28;;;;;;;;;;;;;;;19.75;52.40;99546.34;7276726;19;154455;-51
2022/01/04 04:43:55;;;;;;;;;;;;;;;19.74;52.45;99543.88;7278256;19;152121;-51
2022/01/04 04:46:22;;;;;;;;;;;;;;;19.74;52.70;99549.47;7276883;19;153302;-50
2022/01/04 04:48:49;;;;;;;;;;;;;;;19.75;52.40;99553.94;7275395;19;153638;-51
2022/01/04 04:51:16;;;;;;;;;;;;;;;19.71;52.49;99558.56;7277295;19;152007;-51
2022/01/04 04:53:42;;;;;;;;;;;;;;;19.67;52.45;99561.19;7274593;19;152183;-50
2022/01/04 04:56:10;;;;;;;;;;;;;;;19.65;52.58;99548.69;7281844;19;154061;-51
2022/01/04 04:58:37;;;;;;;;;;;;;;;19.64;52.54;99555.44;7278101;19;153955;-51
2022/01/04 05:01:04;;;;;;;;;;;;;;;19.61;52.97;99545.75;7276684;19;153681;-51
2022/01/04 05:03:31;;;;;;;;;;;;;;;19.66;52.55;99555.94;7277640;19;151821;-51
2022/01/04 05:05:58;;;;;;;;;;;;;;;19.63;52.92;99545.41;7277361;19;154705;-51
2022/01/04 05:08:25;;;;;;;;;;;;;;;19.59;53.13;99548.06;7116713;19;3102466;-51
2022/01/04 05:10:52;;;;;;;;;;;;;;;19.59;53.21;99539.66;7280182;19;151982;-52
2022/01/04 05:13:19;;;;;;;;;;;;;;;19.58;52.90;99540.00;7278263;19;153170;-51
2022/01/04 05:15:46;;;;;;;;;;;;;;;19.57;53.25;99524.34;7275644;19;154891;-51
2022/01/04 05:18:13;;;;;;;;;;;;;;;19.57;53.04;99504.72;7288176;19;152452;-51
2022/01/04 05:20:39;;;;;;;;;;;;;;;19.57;53.21;99508.38;7278360;19;152697;-51
2022/01/04 05:23:06;;;;;;;;;;;;;;;19.53;53.39;99504.59;7277652;19;152220;-52
2022/01/04 05:25:33;;;;;;;;;;;;;;;19.53;53.53;99507.41;7280046;19;153059;-50
2022/01/04 05:28:00;;;;;;;;;;;;;;;19.53;53.64;99510.19;7278568;19;153329;-51
2022/01/04 05:30:27;;;;;;;;;;;;;;;19.50;53.26;99508.88;7279382;19;151782;-50
2022/01/04 05:32:54;;;;;;;;;;;;;;;19.50;53.16;99499.66;7278220;19;152972;-51
2022/01/04 05:35:21;;;;;;;;;;;;;;;19.48;53.48;99499.19;7278076;19;153210;-50
2022/01/04 05:37:48;;;;;;;;;;;;;;;19.51;53.11;99509.69;7284007;19;152420;-50
2022/01/04 05:40:15;;;;;;;;;;;;;;;19.55;53.53;99510.66;7277565;19;153017;-51
2022/01/04 05:42:41;;;;;;;;;;;;;;;19.61;53.72;99512.13;7279090;19;152134;-52
2022/01/04 05:45:08;;;;;;;;;;;;;;;19.65;53.93;99515.06;7279515;19;153747;-51
2022/01/04 05:47:35;;;;;;;;;;;;;;;19.69;53.53;99511.25;7276835;19;152798;-51
2022/01/04 05:50:05;;;;;;;;;;;;;;;19.73;53.87;99509.41;7276233;19;152342;-51
2022/01/04 05:52:32;;;;;;;;;;;;;;;19.77;53.99;99507.56;7278222;19;153333;-50
2022/01/04 05:54:59;;;;;;;;;;;;;;;19.82;54.52;99501.78;7277042;19;153411;-51
2022/01/04 05:57:26;;;;;;;;;;;;;;;19.87;54.61;99497.97;7276096;19;152072;-51
2022/01/04 05:59:53;;;;;;;;;;;;;;;19.90;54.44;99486.88;7285403;19;152623;-51
2022/01/04 06:02:20;;;;;;;;;;;;;;;19.96;54.98;99493.94;7278884;19;151687;-51
2022/01/04 06:04:47;;;;;;;;;;;;;;;20.03;54.94;99504.63;7284247;19;152684;-51
2022/01/04 06:07:14;;;;;;;;;;;;;;;20.09;54.54;99486.44;7282744;19;153657;-48
2022/01/04 06:09:44;;;;;;;;;;;;;;;20.16;54.54;99471.88;7283810;19;151966;-51
2022/01/04 06:17:11;;;;;;;;;;;;;;;20.34;53.91;99476.22;7283311;19;151946;-51
2022/01/04 06:19:39;;;;;;;;;;;;;;;20.40;54.08;99472.00;7284562;19;152038;-51
2022/01/04 06:22:06;;;;;;;;;;;;;;;20.47;53.85;99472.31;7289054;19;153931;-50
2022/01/04 06:24:33;;;;;;;;;;;;;;;20.52;53.56;99472.09;7284525;19;153145;-51
2022/01/04 06:27:00;;;;;;;;;;;;;;;20.58;53.54;99470.69;7283316;19;153309;-51
2022/01/04 06:29:27;;;;;;;;;;;;;;;20.64;52.91;99474.94;7283154;19;152064;-51
2022/01/04 06:31:53;;;;;;;;;;;;;;;20.70;53.05;99472.75;7282261;19;153572;-51
2022/01/04 06:34:20;;;;;;;;;;;;;;;20.74;52.76;99460.47;7283634;19;154578;-51
2022/01/04 06:36:47;;;;;;;;;;;;;;;20.80;52.89;99475.13;7282538;19;152198;-51
2022/01/04 06:39:14;;;;;;;;;;;;;;;20.86;52.43;99468.09;7286224;19;153393;-52
2022/01/04 06:41:41;;;;;;;;;;;;;;;20.91;52.34;99470.69;7283390;19;153367;-50
2022/01/04 06:44:08;;;;;;;;;;;;;;;20.98;52.29;99470.13;7291747;19;152030;-51
2022/01/04 06:46:35;;;;;;;;;;;;;;;21.03;52.39;99467.91;7278748;19;153943;-51
2022/01/04 06:49:02;;;;;;;;;;;;;;;21.08;52.51;99469.66;7284602;19;152528;-51
2022/01/04 06:51:29;;;;;;;;;;;;;;;21.12;51.96;99462.22;7283732;19;152633;-51
2022/01/04 06:53:56;;;;;;;;;;;;;;;21.18;52.24;99452.41;7282215;19;152581;-52
2022/01/04 06:56:23;;;;;;;;;;;;;;;21.24;51.94;99463.06;7280916;19;151929;-51
2022/01/04 06:58:50;;;;;;;;;;;;;;;21.30;52.75;99460.88;7284050;19;152767;-51
2022/01/04 07:01:17;;;;;;;;;;;;;;;21.36;52.28;99475.47;7280802;19;153291;-51
2022/01/04 07:03:44;;;;;;;;;;;;;;;21.43;52.75;99485.00;7281590;19;152253;-50
2022/01/04 07:06:11;;;;;;;;;;;;;;;21.48;52.36;99496.00;7288298;19;152684;-51
2022/01/04 07:08:38;;;;;;;;;;;;;;;21.54;52.25;99502.19;7280777;19;152244;-51
2022/01/04 07:11:05;;;;;;;;;;;;;;;21.58;51.54;99501.13;7283769;19;152653;-51
2022/01/04 07:13:31;;;;;;;;;;;;;;;21.62;51.38;99502.06;7281760;19;153976;-51
2022/01/04 07:15:58;;;;;;;;;;;;;;;21.65;51.44;99501.38;7280769;19;152174;-51
2022/01/04 07:18:25;;;;;;;;;;;;;;;21.69;51.49;99505.13;7279827;19;153231;-51
2022/01/04 07:20:52;;;;;;;;;;;;;;;21.73;51.07;99500.44;7285789;19;153684;-51
2022/01/04 07:23:19;;;;;;;;;;;;;;;21.78;51.19;99507.81;7280154;19;151981;-51
2022/01/04 07:25:46;;;;;;;;;;;;;;;21.82;50.89;99505.13;7283668;19;152675;-51
2022/01/04 07:28:13;;;;;;;;;;;;;;;21.86;50.60;99506.88;7289799;19;153806;-48
2022/01/04 07:30:40;;;;;;;;;;;;;;;21.88;50.77;99501.72;7281257;19;153326;-49
2022/01/04 07:33:07;;;;;;;;;;;;;;;21.94;50.59;99505.16;7283613;19;154431;-50
2022/01/04 07:35:34;;;;;;;;;;;;;;;21.97;50.26;99507.25;7283470;19;152692;-50
2022/01/04 07:38:01;;;;;;;;;;;;;;;22.00;50.29;99498.09;7282741;19;153311;-50
2022/01/04 07:40:28;;;;;;;;;;;;;;;22.03;49.98;99505.84;7278579;19;153762;-50
2022/01/04 07:42:59;;;;;;;;;;;;;;;22.04;49.97;99508.28;7281079;19;151824;-50
2022/01/04 07:45:28;;;;;;;;;;;;;;;22.06;49.56;99514.41;7285365;19;152499;-50
2022/01/04 07:47:55;;;;;;;;;;;;;;;22.07;49.63;99499.16;7290376;19;153967;-50
2022/01/04 07:50:23;;;;;;;;;;;;;;;22.08;49.07;99505.59;7282496;19;153721;-50
2022/01/04 07:52:50;;;;;;;;;;;;;;;22.10;48.84;99506.06;7278864;19;152597;-50
2022/01/04 07:55:17;;;;;;;;;;;;;;;22.10;49.06;99508.88;7280351;19;151840;-50
2022/01/04 07:57:45;;;;;;;;;;;;;;;22.10;48.76;99504.06;7277078;19;153122;-50
2022/01/04 08:00:13;;;;;;;;;;;;;;;22.09;48.67;99507.22;7280907;19;153769;-50
2022/01/04 08:02:40;;;;;;;;;;;;;;;22.10;48.42;99508.88;7283661;19;151939;-50
2022/01/04 08:05:08;;;;;;;;;;;;;;;22.08;48.00;99505.59;7282095;19;153534;-50
2022/01/04 08:07:35;;;;;;;;;;;;;;;22.09;48.07;99504.41;7278823;19;153566;-51
2022/01/04 08:10:03;;;;;;;;;;;;;;;22.09;48.35;99513.69;7289568;19;152017;-50
2022/01/04 08:12:30;;;;;;;;;;;;;;;22.06;48.01;99517.22;7278424;19;152587;-50
2022/01/04 08:14:57;;;;;;;;;;;;;;;22.05;48.07;99523.19;7283769;19;151941;-50
2022/01/04 08:17:24;;;;;;;;;;;;;;;22.03;47.92;99517.09;7277005;19;153154;-50
2022/01/04 08:19:51;;;;;;;;;;;;;;;22.01;48.21;99530.69;7280688;19;153525;-50
2022/01/04 08:22:18;;;;;;;;;;;;;;;22.00;47.87;99529.88;7282008;19;152004;-50
2022/01/04 08:24:45;;;;;;;;;;;;;;;22.00;48.79;99527.06;7280907;19;152116;-50
2022/01/04 08:27:12;;;;;;;;;;;;;;;21.96;48.00;99528.94;7279898;19;154395;-50
2022/01/04 08:29:39;;;;;;;;;;;;;;;21.95;48.01;99530.09;7279820;19;152210;-50
2022/01/04 08:32:06;;;;;;;;;;;;;;;21.94;48.70;99528.44;7288114;19;152683;-50
2022/01/04 08:34:33;;;;;;;;;;;;;;;21.96;49.31;99536.53;7278211;19;152627;-50
2022/01/04 08:37:00;;;;;;;;;;;;;;;21.97;49.19;99538.19;7277981;19;152817;-51
2022/01/04 08:39:27;;;;;;;;;;;;;;;21.97;50.58;99541.81;7279950;19;152389;-56
2022/01/04 08:41:55;;;;;;;;;;;;;;;21.97;49.55;99543.81;7281314;19;152241;-51
2022/01/04 08:44:23;;;;;;;;;;;;;;;21.93;49.71;99545.69;7279865;19;152276;-50
2022/01/04 08:46:50;;;;;;;;;;;;;;;21.91;49.63;99548.00;7277538;19;153658;-49
2022/01/04 08:49:17;;;;;;;;;;;;;;;21.88;49.21;99551.53;7252405;19;154043;-50
2022/01/04 08:51:45;;;;;;;;;;;;;;;21.84;49.02;99547.78;7276784;19;153869;-50
2022/01/04 08:54:14;;;;;;;;;;;;;;;21.84;48.95;99544.97;7283129;19;154624;-49
2022/01/04 08:56:41;;;;;;;;;;;;;;;21.81;49.09;99545.66;7276194;19;153207;-50
2022/01/04 08:59:09;;;;;;;;;;;;;;;21.77;49.10;99547.53;7277954;19;153772;-49
2022/01/04 09:01:37;;;;;;;;;;;;;;;21.72;48.78;99549.41;7278381;19;152327;-49
2022/01/04 09:04:06;;;;;;;;;;;;;;;21.70;48.93;99554.56;7278298;19;153013;-50
2022/01/04 09:06:34;;;;;;;;;;;;;;;21.67;48.96;99551.63;7275151;19;152185;-50
2022/01/04 09:09:00;;;;;;;;;;;;;;;21.62;48.86;99547.03;7277643;19;152076;-50
2022/01/04 09:11:27;;;;;;;;;;;;;;;21.60;49.23;99552.22;7278105;19;154139;-50
2022/01/04 09:14:06;;;;;;;;;;;;;;;21.56;49.22;99542.03;7278486;19;153972;-50
2022/01/04 09:19:03;;;;;;;;;;;;;;;21.51;48.85;99537.44;7275682;19;154397;-50
2022/01/04 09:21:32;;;;;;;;;;;;;;;21.51;49.34;99539.44;7277399;19;152160;-50
2022/01/04 09:23:59;;;;;;;;;;;;;;;21.48;49.02;99545.75;7279092;19;152953;-50
2022/01/04 09:26:27;;;;;;;;;;;;;;;21.47;49.28;99549.72;7275881;19;153839;-50
2022/01/04 09:28:54;;;;;;;;;;;;;;;21.42;49.27;99559.22;7278363;19;152226;-50
2022/01/04 09:31:22;;;;;;;;;;;;;;;21.42;49.17;99584.50;7279073;19;152023;-50
2022/01/04 09:33:50;;;;;;;;;;;;;;;21.39;48.97;99599.25;7276829;19;153370;-50
2022/01/04 09:36:27;;;;;;;;;;;;;;;21.39;49.34;99598.44;7277107;19;151925;-50
2022/01/04 09:38:54;;;;;;;;;;;;;;;21.35;49.14;99603.91;7285523;19;153094;-50
2022/01/04 09:41:21;;;;;;;;;;;;;;;21.31;49.09;99608.56;7284217;19;152576;-50
2022/01/04 09:43:49;;;;;;;;;;;;;;;21.30;49.38;99621.78;7285053;19;152603;-50
2022/01/04 09:46:16;;;;;;;;;;;;;;;21.31;49.18;99619.81;7283129;19;154105;-50
2022/01/04 09:48:43;;;;;;;;;;;;;;;21.34;49.27;99632.34;7283256;19;152384;-50
2022/01/04 09:51:11;;;;;;;;;;;;;;;21.35;49.74;99631.19;7288349;19;153537;-49
2022/01/04 09:53:38;;;;;;;;;;;;;;;21.37;49.85;99635.28;7287126;19;153299;-50
2022/01/04 09:56:07;;;;;;;;;;;;;;;21.41;49.76;99650.28;7283623;19;152010;-50
2022/01/04 09:58:34;;;;;;;;;;;;;;;21.43;49.97;99649.94;7290700;19;152721;-49
2022/01/04 10:01:01;;;;;;;;;;;;;;;21.46;49.86;99657.69;7285965;19;151898;-49
2022/01/04 10:03:29;;;;;;;;;;;;;;;21.48;50.03;99656.19;7285038;19;152207;-50
2022/01/04 10:06:00;;;;;;;;;;;;;;;21.49;49.62;99663.41;7282158;19;153339;-49
2022/01/04 10:08:27;;;;;;;;;;;;;;;21.51;49.69;99668.72;7285964;19;151814;-50
2022/01/04 10:10:58;;;;;;;;;;;;;;;21.53;49.85;99675.63;7288045;19;153550;-50
2022/01/04 10:13:28;;;;;;;;;;;;;;;21.54;49.90;99687.69;7284829;19;152480;-50
2022/01/04 10:15:55;;;;;;;;;;;;;;;21.54;49.38;99694.13;7284709;19;152005;-50
2022/01/04 10:18:28;;;;;;;;;;;;;;;21.55;49.48;99698.59;7283651;19;154038;-49
2022/01/04 10:20:58;;;;;;;;;;;;;;;21.56;49.48;99711.47;7291432;19;153420;-50
2022/01/04 10:23:26;;;;;;;;;;;;;;;21.56;48.92;99711.47;7283681;19;152790;-50
2022/01/04 10:26:00;;;;;;;;;;;;;;;21.57;48.89;99721.56;7281573;19;154021;-50
2022/01/04 10:28:28;;;;;;;;;;;;;;;21.56;49.18;99730.31;7281610;19;152723;-49
2022/01/04 10:30:58;;;;;;;;;;;;;;;21.56;48.90;99733.97;7284686;19;153485;-49
2022/01/04 10:33:27;;;;;;;;;;;;;;;21.54;49.19;99738.28;7280027;19;154120;-50
2022/01/04 10:35:56;;;;;;;;;;;;;;;21.47;48.37;99740.81;7284091;19;151759;-50
2022/01/04 10:38:26;;;;;;;;;;;;;;;21.41;47.89;99733.75;7281542;19;152210;-51
2022/01/04 10:40:56;;;;;;;;;;;;;;;21.37;47.86;99747.69;7283279;19;153159;-51
2022/01/04 10:43:25;;;;;;;;;;;;;;;21.37;47.39;99741.25;7290758;19;151950;-50
2022/01/04 10:45:53;;;;;;;;;;;;;;;21.35;47.33;99752.81;7281445;19;153261;-51
2022/01/04 10:48:21;;;;;;;;;;;;;;;21.34;47.27;99748.38;7285477;19;152707;-51
2022/01/04 10:50:50;;;;;;;;;;;;;;;21.31;46.99;99751.84;7286381;19;152615;-51
2022/01/04 10:53:21;;;;;;;;;;;;;;;21.27;47.14;99759.31;7283462;19;153334;-51
2022/01/04 10:55:49;;;;;;;;;;;;;;;21.23;46.95;99764.00;7284268;19;151970;-51
2022/01/04 10:58:19;;;;;;;;;;;;;;;21.20;46.70;99767.50;7281346;19;153340;-51
2022/01/04 11:00:49;;;;;;;;;;;;;;;21.15;46.89;99779.75;7281255;19;154146;-51
2022/01/04 11:03:19;;;;;;;;;;;;;;;21.12;46.65;99780.38;7283888;19;152050;-51
2022/01/04 11:05:46;;;;;;;;;;;;;;;21.12;46.68;99788.81;7290325;19;153520;-50
2022/01/04 11:08:17;;;;;;;;;;;;;;;21.15;46.26;99801.41;7280860;19;152043;-51
2022/01/04 11:10:44;;;;;;;;;;;;;;;21.20;46.76;99809.63;7283780;19;153364;-51
2022/01/04 11:13:12;;;;;;;;;;;;;;;21.16;46.63;99817.91;7282199;19;153186;-51
2022/01/04 11:15:39;;;;;;;;;;;;;;;21.15;46.24;99807.84;7283584;19;151995;-50
2022/01/04 11:18:06;;;;;;;;;;;;;;;21.15;46.38;99812.63;7281762;19;153282;-51
2022/01/04 11:20:33;;;;;;;;;;;;;;;21.14;46.64;99811.81;7282185;19;154114;-50
2022/01/04 11:23:00;;;;;;;;;;;;;;;21.15;46.71;99805.03;7283333;19;151900;-51
2022/01/04 11:25:27;;;;;;;;;;;;;;;21.16;46.39;99803.88;7286818;19;153220;-51
2022/01/04 11:27:55;;;;;;;;;;;;;;;21.18;46.32;99811.94;7289610;19;152650;-50
2022/01/04 11:30:25;;;;;;;;;;;;;;;21.17;45.98;99813.94;7282884;19;152414;-51
2022/01/04 11:32:59;;;;;;;;;;;;;;;21.18;46.01;99820.38;7282067;19;153457;-51
2022/01/04 11:35:26;;;;;;;;;;;;;;;21.18;45.50;99823.19;7284215;19;151913;-51
2022/01/04 11:37:54;;;;;;;;;;;;;;;21.18;45.41;99823.19;7279850;19;153064;-51
2022/01/04 11:40:25;;;;;;;;;;;;;;;21.17;45.36;99822.34;7279995;19;153439;-51
2022/01/04 11:42:53;;;;;;;;;;;;;;;21.17;45.42;99827.13;7282342;19;151929;-50
2022/01/04 11:45:23;;;;;;;;;;;;;;;21.16;45.34;99825.53;7281958;19;152214;-51
2022/01/04 11:47:50;;;;;;;;;;;;;;;21.16;45.46;99825.53;7281553;19;153320;-51
2022/01/04 11:50:20;;;;;;;;;;;;;;;21.14;44.95;99830.63;7290266;19;152109;-51
2022/01/04 11:52:50;;;;;;;;;;;;;;;21.13;45.31;99826.19;7278068;19;153917;-52
2022/01/04 11:55:21;;;;;;;;;;;;;;;21.12;44.78;99835.75;7282419;19;151956;-51
2022/01/04 11:57:50;;;;;;;;;;;;;;;21.10;44.93;99838.06;7281257;19;152812;-51
2022/01/04 12:00:22;;;;;;;;;;;;;;;21.10;44.58;99832.47;7281344;19;153802;-50
2022/01/04 12:02:52;;;;;;;;;;;;;;;21.08;44.43;99838.41;7278936;19;151955;-51
2022/01/04 12:05:23;;;;;;;;;;;;;;;21.09;44.79;99842.03;7282972;19;153194;-51
2022/01/04 12:07:51;;;;;;;;;;;;;;;21.07;44.76;99844.38;7278637;19;152290;-51
2022/01/04 12:10:20;;;;;;;;;;;;;;;21.06;44.52;99837.09;7289941;19;151842;-50
2022/01/04 12:12:50;;;;;;;;;;;;;;;21.05;44.34;99846.69;7280769;19;154345;-51
2022/01/04 12:15:20;;;;;;;;;;;;;;;21.03;44.19;99843.41;7282668;19;152009;-52
2022/01/04 12:17:47;;;;;;;;;;;;;;;21.01;44.51;99851.34;7278115;19;153838;-51
2022/01/04 12:20:34;;;;;;;;;;;;;;;20.98;44.23;99846.41;7277063;19;154024;-50
2022/01/04 12:23:21;;;;;;;;;;;;;;;20.95;44.32;99844.25;7279345;19;152180;-51
2022/01/04 12:25:50;;;;;;;;;;;;;;;20.94;44.42;99851.06;7280585;19;153058;-51
2022/01/04 12:28:18;;;;;;;;;;;;;;;20.91;44.15;99835.69;7281431;19;153777;-51
2022/01/04 12:30:47;;;;;;;;;;;;;;;20.91;44.59;99848.91;7282384;19;151998;-51
2022/01/04 12:33:33;;;;;;;;;;;;;;;20.89;44.43;99848.44;7287437;19;152878;-51
2022/01/04 12:35:59;;;;;;;;;;;;;;;20.87;44.50;99851.56;7280531;19;151978;-50
2022/01/04 12:38:27;;;;;;;;;;;;;;;20.89;44.03;99849.25;7278562;19;153593;-51
2022/01/04 12:40:55;;;;;;;;;;;;;;;20.90;44.40;99855.69;7278424;19;152847;-51
2022/01/04 12:43:22;;;;;;;;;;;;;;;20.89;44.40;99854.06;7281438;19;152219;-51
2022/01/04 12:45:52;;;;;;;;;;;;;;;20.89;44.52;99859.66;7283286;19;153395;-50
2022/01/04 12:48:19;;;;;;;;;;;;;;;20.90;44.27;99862.13;7282178;19;156024;-51
2022/01/04 12:50:46;;;;;;;;;;;;;;;20.89;44.36;99856.88;7282887;19;152369;-51